Time;durP1;ratioP1;P1;durP2;ratioP2;P2;SDS_P1;SDS_P2;PMS_P1;PMS_P2;Temp;Humidity;BMP_temperature;BMP_pressure;BME280_temperature;BME280_humidity;BME280_pressure;Samples;Min_cycle;Max_cycle;Signal;HPM_P1;HPM_P2
2021/05/09 00:02:12;;;;;;;;;;;;;;;15.08;41.20;100764.14;1779504;80;20247;-78
2021/05/09 00:04:40;;;;;;;;;;;;;;;15.08;41.23;100764.14;1769169;80;20270;-78
2021/05/09 00:07:07;;;;;;;;;;;;;;;15.07;41.20;100774.58;1754167;80;20296;-78
2021/05/09 00:09:35;;;;;;;;;;;;;;;15.05;41.26;100774.45;1778380;78;20293;-78
2021/05/09 00:12:04;;;;;;;;;;;;;;;15.03;41.29;100779.17;1775362;80;20279;-78
2021/05/09 00:14:31;;;;;;;;;;;;;;;14.99;41.37;100780.06;1742054;82;20267;-80
2021/05/09 00:16:58;;;;;;;;;;;;;;;14.97;41.43;100782.08;1742728;81;20259;-80
2021/05/09 00:19:25;;;;;;;;;;;;;;;14.95;41.41;100778.73;1766679;80;20358;-79
2021/05/09 00:21:52;;;;;;;;;;;;;;;14.93;41.41;100786.98;1758521;80;20199;-79
2021/05/09 00:24:18;;;;;;;;;;;;;;;14.92;41.43;100791.22;1755451;80;20486;-79
2021/05/09 00:26:45;;;;;;;;;;;;;;;14.89;41.46;100786.17;1757432;80;20318;-79
2021/05/09 00:29:12;;;;;;;;;;;;;;;14.86;41.51;100785.20;1768826;80;20231;-80
2021/05/09 00:31:39;;;;;;;;;;;;;;;14.86;41.52;100787.38;1737185;81;20228;-80
2021/05/09 00:34:06;;;;;;;;;;;;;;;14.84;41.54;100791.27;1779138;80;20218;-79
2021/05/09 00:36:33;;;;;;;;;;;;;;;14.83;41.59;100793.13;1758869;80;20475;-80
2021/05/09 00:39:00;;;;;;;;;;;;;;;14.82;41.65;100792.80;1757967;80;20182;-79
2021/05/09 00:41:28;;;;;;;;;;;;;;;14.81;41.61;100795.17;1762443;80;20239;-79
2021/05/09 00:43:55;;;;;;;;;;;;;;;14.78;41.61;100791.98;1781255;80;20284;-79
2021/05/09 00:46:22;;;;;;;;;;;;;;;14.80;41.59;100796.67;1778928;78;20200;-80
2021/05/09 00:48:49;;;;;;;;;;;;;;;14.78;41.62;100795.52;1796109;80;20484;-79
2021/05/09 00:51:15;;;;;;;;;;;;;;;14.77;41.63;100795.70;1810852;79;20299;-80
2021/05/09 00:53:43;;;;;;;;;;;;;;;14.77;41.64;100803.80;1767509;79;20222;-80
2021/05/09 00:56:13;;;;;;;;;;;;;;;14.73;41.59;100802.47;1743132;82;20512;-80
2021/05/09 00:58:43;;;;;;;;;;;;;;;14.70;41.53;100805.83;1775442;81;20216;-80
2021/05/09 01:01:12;;;;;;;;;;;;;;;14.71;41.42;100817.45;1775311;80;20196;-80
2021/05/09 01:03:42;;;;;;;;;;;;;;;14.67;41.50;100811.59;1753217;82;20227;-79
2021/05/09 01:06:09;;;;;;;;;;;;;;;14.67;41.45;100819.69;1756675;81;20211;-79
2021/05/09 01:08:37;;;;;;;;;;;;;;;14.68;41.43;100821.36;1780602;80;20224;-79
2021/05/09 01:11:05;;;;;;;;;;;;;;;14.68;41.38;100819.17;1804149;78;20211;-79
2021/05/09 01:13:32;;;;;;;;;;;;;;;14.66;41.37;100820.67;1784782;80;20570;-78
2021/05/09 01:16:00;;;;;;;;;;;;;;;14.68;41.36;100825.91;1779902;80;20217;-78
2021/05/09 01:18:29;;;;;;;;;;;;;;;14.67;41.37;100832.30;1785366;80;20214;-78
2021/05/09 01:20:58;;;;;;;;;;;;;;;14.65;41.36;100828.95;1738227;82;20218;-79
2021/05/09 01:23:25;;;;;;;;;;;;;;;14.64;41.36;100837.55;1763412;81;20316;-78
2021/05/09 01:25:53;;;;;;;;;;;;;;;14.65;41.32;100833.83;1763523;81;20229;-79
2021/05/09 01:28:21;;;;;;;;;;;;;;;14.63;41.39;100833.18;1765258;81;20241;-78
2021/05/09 01:30:48;;;;;;;;;;;;;;;14.62;41.40;100836.03;1766088;81;20217;-78
2021/05/09 01:33:15;;;;;;;;;;;;;;;14.61;41.35;100844.63;1766108;81;20291;-78
2021/05/09 01:35:42;;;;;;;;;;;;;;;14.61;41.42;100841.94;1734222;81;20236;-78
2021/05/09 01:38:10;;;;;;;;;;;;;;;14.60;41.40;100848.86;1766113;81;20264;-78
2021/05/09 01:40:37;;;;;;;;;;;;;;;14.58;41.35;100849.52;1765926;81;20240;-79
2021/05/09 01:43:04;;;;;;;;;;;;;;;14.57;41.44;100851.89;1764326;80;20248;-78
2021/05/09 01:45:32;;;;;;;;;;;;;;;14.58;41.44;100857.13;1793936;80;20221;-79
2021/05/09 01:48:01;;;;;;;;;;;;;;;14.56;41.46;100862.34;1795017;80;20214;-79
2021/05/09 01:50:33;;;;;;;;;;;;;;;14.55;41.42;100858.81;1793201;80;20214;-77
2021/05/09 01:53:02;;;;;;;;;;;;;;;14.54;41.48;100859.00;1792805;80;20218;-77
2021/05/09 01:55:31;;;;;;;;;;;;;;;14.53;41.45;100860.83;1792612;80;20230;-79
2021/05/09 01:58:05;;;;;;;;;;;;;;;14.53;41.44;100865.38;1766768;80;20480;-77
2021/05/09 02:00:35;;;;;;;;;;;;;;;14.51;41.47;100869.61;1791114;80;20242;-78
2021/05/09 02:03:06;;;;;;;;;;;;;;;14.49;41.50;100873.48;1792879;80;20266;-79
2021/05/09 02:05:33;;;;;;;;;;;;;;;14.46;41.46;100870.09;1794146;80;20238;-79
2021/05/09 02:08:01;;;;;;;;;;;;;;;14.46;41.57;100881.39;1794057;80;20488;-78
2021/05/09 02:10:28;;;;;;;;;;;;;;;14.46;41.55;100886.78;1761894;80;20221;-78
2021/05/09 02:12:55;;;;;;;;;;;;;;;14.46;41.52;100889.48;1793050;80;20270;-79
2021/05/09 02:15:24;;;;;;;;;;;;;;;14.46;41.47;100890.83;1793489;80;20210;-79
2021/05/09 02:17:52;;;;;;;;;;;;;;;14.46;41.52;100894.36;1795060;80;20258;-79
2021/05/09 02:20:21;;;;;;;;;;;;;;;14.45;41.60;100908.02;1794555;80;20337;-80
2021/05/09 02:22:49;;;;;;;;;;;;;;;14.44;41.58;100914.39;1762595;80;20234;-78
2021/05/09 02:25:16;;;;;;;;;;;;;;;14.43;41.61;100908.68;1796188;80;20230;-78
2021/05/09 02:27:44;;;;;;;;;;;;;;;14.42;41.59;100916.44;1795166;80;20214;-79
2021/05/09 02:30:15;;;;;;;;;;;;;;;14.40;41.62;100923.87;1795069;80;20204;-79
2021/05/09 02:32:44;;;;;;;;;;;;;;;14.41;41.64;100924.20;1793777;80;20205;-79
2021/05/09 02:35:11;;;;;;;;;;;;;;;14.40;41.61;100926.56;1795232;80;20218;-79
2021/05/09 02:37:38;;;;;;;;;;;;;;;14.39;41.59;100927.55;1762270;80;20214;-79
2021/05/09 02:40:06;;;;;;;;;;;;;;;14.36;41.71;100935.48;1796023;80;20317;-79
2021/05/09 02:42:34;;;;;;;;;;;;;;;14.36;41.67;100945.43;1795314;80;20218;-80
2021/05/09 02:45:04;;;;;;;;;;;;;;;14.36;41.66;100942.73;1794943;80;20215;-79
2021/05/09 02:47:32;;;;;;;;;;;;;;;14.36;41.63;100947.62;1795007;80;20218;-79
2021/05/09 02:50:05;;;;;;;;;;;;;;;14.37;41.62;100948.45;1762726;80;20227;-79
2021/05/09 02:52:32;;;;;;;;;;;;;;;14.36;41.63;100955.70;1794933;79;20230;-79
2021/05/09 02:55:00;;;;;;;;;;;;;;;14.34;41.71;100951.48;1794990;80;20211;-79
2021/05/09 02:57:28;;;;;;;;;;;;;;;14.34;41.73;100960.41;1794911;80;20234;-80
2021/05/09 02:59:55;;;;;;;;;;;;;;;14.32;41.75;100957.56;1794976;80;20221;-77
2021/05/09 03:02:22;;;;;;;;;;;;;;;14.32;41.76;100961.09;1761181;80;20261;-77
2021/05/09 03:04:51;;;;;;;;;;;;;;;14.31;41.73;100959.93;1793398;80;20269;-77
2021/05/09 03:07:18;;;;;;;;;;;;;;;14.30;41.73;100964.45;1793305;80;20222;-78
2021/05/09 03:09:46;;;;;;;;;;;;;;;14.32;41.67;100971.03;1793468;80;20281;-78
2021/05/09 03:12:13;;;;;;;;;;;;;;;14.31;41.63;100977.44;1793514;80;20222;-78
2021/05/09 03:14:40;;;;;;;;;;;;;;;14.32;41.55;100975.08;1772633;80;20245;-79
2021/05/09 03:17:08;;;;;;;;;;;;;;;14.31;41.60;100984.18;1762623;81;20280;-79
2021/05/09 03:19:38;;;;;;;;;;;;;;;14.31;41.73;100990.92;1763319;81;20220;-78
2021/05/09 03:22:05;;;;;;;;;;;;;;;14.31;41.69;100989.06;1763267;81;20481;-78
2021/05/09 03:24:33;;;;;;;;;;;;;;;14.31;41.63;100995.80;1763435;81;20221;-79
2021/05/09 03:27:01;;;;;;;;;;;;;;;14.33;41.66;100994.27;1763451;81;20266;-78
2021/05/09 03:29:28;;;;;;;;;;;;;;;14.36;41.60;101001.52;1763416;81;20220;-79
2021/05/09 03:31:55;;;;;;;;;;;;;;;14.37;41.62;100999.66;1763478;81;20295;-79
2021/05/09 03:34:23;;;;;;;;;;;;;;;14.37;41.50;100996.97;1763782;81;20225;-79
2021/05/09 03:36:50;;;;;;;;;;;;;;;14.38;41.56;101002.69;1763518;81;20243;-78
2021/05/09 03:39:17;;;;;;;;;;;;;;;14.40;41.56;101000.68;1764039;81;20239;-78
2021/05/09 03:41:44;;;;;;;;;;;;;;;14.42;41.59;101001.34;1763679;81;20231;-79
2021/05/09 03:44:11;;;;;;;;;;;;;;;14.45;41.46;101003.19;1763934;81;20496;-78
2021/05/09 03:46:38;;;;;;;;;;;;;;;14.48;41.43;101008.77;1765012;81;20219;-78
2021/05/09 03:49:05;;;;;;;;;;;;;;;14.52;41.44;101008.77;1765747;81;20273;-78
2021/05/09 03:51:32;;;;;;;;;;;;;;;14.53;41.41;101015.83;1765990;80;20242;-78
2021/05/09 03:53:59;;;;;;;;;;;;;;;14.57;41.41;101014.48;1765407;81;20488;-76
2021/05/09 03:56:26;;;;;;;;;;;;;;;14.62;41.34;101016.16;1765088;81;20512;-77
2021/05/09 03:58:53;;;;;;;;;;;;;;;14.68;41.28;101019.53;1764775;81;20294;-77
2021/05/09 04:01:20;;;;;;;;;;;;;;;14.74;41.29;101018.00;1763421;81;20231;-79
2021/05/09 04:03:47;;;;;;;;;;;;;;;14.83;41.21;101028.27;1763289;80;20508;-79
2021/05/09 04:06:14;;;;;;;;;;;;;;;14.91;40.99;101029.60;1763218;81;20206;-78
2021/05/09 04:08:42;;;;;;;;;;;;;;;15.00;40.76;101033.96;1763394;81;20218;-78
2021/05/09 04:11:12;;;;;;;;;;;;;;;15.08;40.56;101033.08;1763560;81;20238;-78
2021/05/09 04:13:46;;;;;;;;;;;;;;;15.18;40.49;101037.27;1763727;81;20215;-78
2021/05/09 04:16:14;;;;;;;;;;;;;;;15.27;40.10;101038.59;1764024;81;20223;-78
2021/05/09 04:18:41;;;;;;;;;;;;;;;15.35;40.01;101037.19;1763403;81;20223;-78
2021/05/09 04:21:08;;;;;;;;;;;;;;;15.43;39.90;101045.27;1763299;81;20243;-78
2021/05/09 04:23:35;;;;;;;;;;;;;;;15.51;39.75;101045.23;1762362;81;20273;-78
2021/05/09 04:26:07;;;;;;;;;;;;;;;15.61;39.75;101048.55;1762271;81;20219;-78
2021/05/09 04:28:31;;;;;;;;;;;;;;;15.72;39.56;101054.12;1736832;81;20264;-78
2021/05/09 04:30:58;;;;;;;;;;;;;;;15.82;39.34;101052.53;1772399;80;20274;-79
2021/05/09 04:33:26;;;;;;;;;;;;;;;15.92;39.04;101049.09;1771987;80;20236;-79
2021/05/09 04:35:53;;;;;;;;;;;;;;;16.01;38.69;101056.12;1770808;80;20367;-79
2021/05/09 04:38:20;;;;;;;;;;;;;;;16.09;38.33;101052.53;1793210;80;20374;-78
2021/05/09 04:40:47;;;;;;;;;;;;;;;16.15;38.28;101055.34;1793535;80;20266;-79
2021/05/09 04:43:16;;;;;;;;;;;;;;;16.24;38.32;101061.53;1793202;80;20280;-79
2021/05/09 04:45:50;;;;;;;;;;;;;;;16.33;37.91;101059.09;1793254;80;20289;-78
2021/05/09 04:48:18;;;;;;;;;;;;;;;16.44;37.92;101063.22;1793512;80;20562;-80
2021/05/09 04:50:46;;;;;;;;;;;;;;;16.54;37.98;101072.47;1793566;80;20380;-77
2021/05/09 04:53:30;;;;;;;;;;;;;;;16.64;37.52;101071.17;1759745;80;20282;-81
2021/05/09 04:55:59;;;;;;;;;;;;;;;16.71;37.34;101072.14;1792680;80;20293;-78
2021/05/09 04:58:27;;;;;;;;;;;;;;;16.81;36.90;101080.54;1792657;80;20316;-78
2021/05/09 05:00:55;;;;;;;;;;;;;;;16.88;36.57;101086.36;1792431;80;20269;-78
2021/05/09 05:03:22;;;;;;;;;;;;;;;16.95;36.16;101090.03;1792848;78;20289;-79
2021/05/09 05:05:49;;;;;;;;;;;;;;;16.99;35.91;101087.80;1793141;80;20269;-78
2021/05/09 05:08:16;;;;;;;;;;;;;;;17.00;35.90;101092.18;1785300;79;20277;-78
2021/05/09 05:10:43;;;;;;;;;;;;;;;17.02;35.82;101092.82;1793065;80;20277;-79
2021/05/09 05:13:20;;;;;;;;;;;;;;;17.04;35.85;101093.49;1785141;79;20277;-79
2021/05/09 05:15:48;;;;;;;;;;;;;;;17.07;35.78;101102.58;1776720;80;20301;-79
2021/05/09 05:18:15;;;;;;;;;;;;;;;17.09;35.54;101091.06;1780373;80;20259;-78
2021/05/09 05:20:45;;;;;;;;;;;;;;;17.12;35.21;101104.24;1786819;80;20277;-78
2021/05/09 05:23:19;;;;;;;;;;;;;;;17.16;35.09;101107.39;1800457;79;20217;-78
2021/05/09 05:25:46;;;;;;;;;;;;;;;17.13;35.27;101112.69;1779332;79;20256;-78
2021/05/09 05:28:14;;;;;;;;;;;;;;;17.14;35.03;101106.23;1800753;79;20209;-79
2021/05/09 05:30:41;;;;;;;;;;;;;;;17.16;35.17;101110.09;1800235;79;20287;-78
2021/05/09 05:33:08;;;;;;;;;;;;;;;17.22;35.32;101112.09;1780468;79;20276;-79
2021/05/09 05:35:35;;;;;;;;;;;;;;;17.30;34.94;101123.31;1800446;79;20533;-80
2021/05/09 05:38:05;;;;;;;;;;;;;;;17.31;34.73;101123.16;1800334;79;20307;-79
2021/05/09 05:40:32;;;;;;;;;;;;;;;17.36;34.69;101128.84;1802581;79;20252;-79
2021/05/09 05:42:59;;;;;;;;;;;;;;;17.42;34.66;101124.03;1773462;81;20279;-77
2021/05/09 05:45:27;;;;;;;;;;;;;;;17.50;34.50;101128.52;1780934;80;20215;-79
2021/05/09 05:47:53;;;;;;;;;;;;;;;17.54;34.51;101133.89;1812989;79;20272;-79
2021/05/09 05:50:20;;;;;;;;;;;;;;;17.59;34.58;101132.81;1774428;80;20223;-78
2021/05/09 05:52:50;;;;;;;;;;;;;;;17.70;34.55;101132.33;1780571;79;20220;-78
2021/05/09 05:55:16;;;;;;;;;;;;;;;17.81;34.33;101126.99;1813154;79;20295;-76
2021/05/09 05:57:44;;;;;;;;;;;;;;;17.93;34.27;101130.03;1780664;80;20548;-77
2021/05/09 06:00:12;;;;;;;;;;;;;;;18.02;33.86;101128.89;1780311;80;20317;-77
2021/05/09 06:02:39;;;;;;;;;;;;;;;18.14;33.72;101134.16;1809969;79;20284;-79
2021/05/09 06:05:07;;;;;;;;;;;;;;;18.21;33.57;101128.30;1772065;81;20271;-80
2021/05/09 06:07:33;;;;;;;;;;;;;;;18.35;33.85;101127.06;1777797;80;20315;-79
2021/05/09 06:10:01;;;;;;;;;;;;;;;18.54;33.54;101126.96;1777918;80;20262;-80
2021/05/09 06:12:28;;;;;;;;;;;;;;;18.77;33.42;101130.33;1779162;80;20259;-80
2021/05/09 06:14:57;;;;;;;;;;;;;;;18.97;33.25;101137.27;1780183;80;20215;-78
2021/05/09 06:17:24;;;;;;;;;;;;;;;19.16;32.86;101133.03;1764242;80;20206;-79
2021/05/09 06:19:53;;;;;;;;;;;;;;;19.35;32.33;101136.42;1724082;83;20277;-80
2021/05/09 06:22:20;;;;;;;;;;;;;;;19.54;32.42;101132.66;1799598;79;20257;-80
2021/05/09 06:24:48;;;;;;;;;;;;;;;19.78;31.72;101131.34;1780368;79;20209;-79
2021/05/09 06:27:15;;;;;;;;;;;;;;;20.01;31.15;101140.00;1799714;79;20268;-79
2021/05/09 06:29:43;;;;;;;;;;;;;;;20.23;30.68;101142.07;1799873;79;20281;-79
2021/05/09 06:32:10;;;;;;;;;;;;;;;20.45;30.56;101130.52;1800283;79;20296;-80
2021/05/09 06:34:37;;;;;;;;;;;;;;;20.69;30.24;101140.82;1745801;80;20594;-80
2021/05/09 06:37:04;;;;;;;;;;;;;;;20.95;30.03;101135.08;1772692;79;20909;-80
2021/05/09 06:39:31;;;;;;;;;;;;;;;21.22;29.58;101134.01;1770214;80;20255;-80
2021/05/09 06:42:00;;;;;;;;;;;;;;;21.46;29.17;101143.95;1768321;81;20259;-80
2021/05/09 06:44:30;;;;;;;;;;;;;;;21.65;28.26;101135.40;1775459;79;20258;-79
2021/05/09 06:46:57;;;;;;;;;;;;;;;21.78;27.78;101137.55;1781307;80;20249;-78
2021/05/09 06:49:24;;;;;;;;;;;;;;;21.95;27.78;101142.53;1806262;79;20276;-79
2021/05/09 06:51:51;;;;;;;;;;;;;;;22.13;27.62;101144.05;1747220;81;20255;-80
2021/05/09 06:54:18;;;;;;;;;;;;;;;22.32;27.19;101149.63;1772632;81;20290;-79
2021/05/09 06:56:45;;;;;;;;;;;;;;;22.44;27.05;101145.15;1760301;81;20276;-80
2021/05/09 06:59:12;;;;;;;;;;;;;;;22.61;26.84;101148.16;1720184;82;20277;-79
2021/05/09 07:01:39;;;;;;;;;;;;;;;22.79;26.84;101150.97;1753374;80;20303;-80
2021/05/09 07:04:06;;;;;;;;;;;;;;;22.96;26.67;101153.49;1754553;80;20291;-80
2021/05/09 07:06:33;;;;;;;;;;;;;;;23.13;26.14;101151.58;1781583;80;20269;-80
2021/05/09 07:09:01;;;;;;;;;;;;;;;23.25;26.06;101151.13;1784216;80;20564;-79
2021/05/09 07:11:30;;;;;;;;;;;;;;;23.36;26.06;101156.41;1780614;80;20417;-78
2021/05/09 07:13:58;;;;;;;;;;;;;;;23.45;25.52;101154.51;1773303;80;20272;-78
2021/05/09 07:16:26;;;;;;;;;;;;;;;23.53;25.80;101151.48;1770276;80;20289;-79
2021/05/09 07:18:56;;;;;;;;;;;;;;;23.65;25.54;101154.31;1752762;80;41066;-78
2021/05/09 07:21:27;;;;;;;;;;;;;;;23.84;25.27;101151.58;1784686;80;20211;-78
2021/05/09 07:23:53;;;;;;;;;;;;;;;23.97;24.96;101152.78;1783517;80;20254;-79
2021/05/09 07:26:20;;;;;;;;;;;;;;;24.15;24.78;101151.92;1783872;80;20355;-78
2021/05/09 07:28:47;;;;;;;;;;;;;;;24.27;24.45;101147.34;1784248;80;20277;-77
2021/05/09 07:31:14;;;;;;;;;;;;;;;24.35;24.79;101142.91;1784368;80;20281;-79
2021/05/09 07:33:42;;;;;;;;;;;;;;;24.49;24.73;101146.33;1784503;80;20278;-80
2021/05/09 07:36:11;;;;;;;;;;;;;;;24.58;24.47;101142.18;1784891;80;20289;-80
2021/05/09 07:38:38;;;;;;;;;;;;;;;24.66;24.51;101151.41;1784839;80;20282;-80
2021/05/09 07:41:05;;;;;;;;;;;;;;;24.72;24.27;101142.80;1784588;80;20274;-79
2021/05/09 07:43:32;;;;;;;;;;;;;;;24.75;24.11;101156.88;1784515;80;20291;-80
2021/05/09 07:45:59;;;;;;;;;;;;;;;24.72;23.70;101146.92;1784154;80;20277;-79
2021/05/09 07:48:26;;;;;;;;;;;;;;;24.68;23.49;101153.39;1787770;80;20301;-80
2021/05/09 07:50:54;;;;;;;;;;;;;;;24.65;23.54;101151.66;1789007;80;20234;-80
2021/05/09 07:53:20;;;;;;;;;;;;;;;24.69;23.53;101148.20;1773518;79;20181;-80
2021/05/09 07:55:47;;;;;;;;;;;;;;;24.73;23.79;101150.78;1757719;81;20213;-80
2021/05/09 07:58:18;;;;;;;;;;;;;;;24.75;23.66;101152.77;1759014;80;20268;-77
2021/05/09 08:00:46;;;;;;;;;;;;;;;24.86;23.35;101145.63;1787456;80;20250;-78
2021/05/09 08:03:13;;;;;;;;;;;;;;;24.83;23.27;101150.20;1784456;80;20581;-78
2021/05/09 08:05:42;;;;;;;;;;;;;;;24.76;23.24;101161.28;1784926;80;20265;-80
2021/05/09 08:08:09;;;;;;;;;;;;;;;24.62;23.20;101152.97;1784953;80;20293;-78
2021/05/09 08:10:39;;;;;;;;;;;;;;;24.61;23.38;101145.80;1773526;80;20286;-79
2021/05/09 08:13:07;;;;;;;;;;;;;;;24.55;22.90;101158.53;1776101;80;20855;-80
2021/05/09 08:15:34;;;;;;;;;;;;;;;24.44;22.92;101173.58;1778149;80;20299;-79
2021/05/09 08:18:01;;;;;;;;;;;;;;;24.27;23.10;101170.08;1769611;80;20324;-80
2021/05/09 08:20:28;;;;;;;;;;;;;;;24.08;22.86;101173.92;1755963;80;20436;-80
2021/05/09 08:22:57;;;;;;;;;;;;;;;23.89;22.98;101164.03;1753073;82;20804;-78
2021/05/09 08:25:24;;;;;;;;;;;;;;;23.70;23.30;101172.78;1753903;80;20287;-78
2021/05/09 08:27:51;;;;;;;;;;;;;;;23.59;23.33;101183.09;1753161;82;20280;-78
2021/05/09 08:30:20;;;;;;;;;;;;;;;23.50;23.23;101168.87;1754868;82;20221;-79
2021/05/09 08:32:48;;;;;;;;;;;;;;;23.50;23.29;101166.97;1754528;82;20295;-78
2021/05/09 08:35:15;;;;;;;;;;;;;;;23.54;23.29;101166.83;1753350;81;20241;-78
2021/05/09 08:37:43;;;;;;;;;;;;;;;23.61;23.65;101168.11;1754023;80;20519;-78
2021/05/09 08:40:15;;;;;;;;;;;;;;;23.71;23.78;101166.23;1753237;82;20636;-78
2021/05/09 08:42:43;;;;;;;;;;;;;;;23.77;23.70;101170.28;1753031;82;20260;-78
2021/05/09 08:45:11;;;;;;;;;;;;;;;23.86;23.83;101170.81;1757394;80;20545;-78
2021/05/09 08:47:42;;;;;;;;;;;;;;;23.92;23.99;101172.63;1783881;80;20586;-78
2021/05/09 08:50:15;;;;;;;;;;;;;;;23.93;23.04;101174.29;1784273;80;20250;-78
2021/05/09 08:52:44;;;;;;;;;;;;;;;23.82;22.70;101170.97;1783378;80;20245;-79
2021/05/09 08:55:16;;;;;;;;;;;;;;;23.65;22.94;101176.73;1754184;82;20251;-78
2021/05/09 08:57:43;;;;;;;;;;;;;;;23.55;23.21;101179.96;1754823;82;20155;-78
2021/05/09 09:00:12;;;;;;;;;;;;;;;23.51;23.48;101178.20;1753938;81;20278;-78
2021/05/09 09:02:42;;;;;;;;;;;;;;;23.50;23.78;101170.23;1752001;82;20267;-80
2021/05/09 09:05:09;;;;;;;;;;;;;;;23.51;23.63;101178.20;1781442;80;20254;-77
2021/05/09 09:07:46;;;;;;;;;;;;;;;23.47;23.42;101174.78;1784207;80;20282;-78
2021/05/09 09:10:39;;;;;;;;;;;;;;;23.36;23.12;101172.80;1784615;80;20555;-78
2021/05/09 09:13:27;;;;;;;;;;;;;;;23.19;23.35;101174.73;1784185;80;20278;-78
2021/05/09 09:16:01;;;;;;;;;;;;;;;23.08;23.77;101171.38;1784193;80;20293;-79
2021/05/09 09:18:43;;;;;;;;;;;;;;;22.98;23.91;101172.39;1784583;80;20247;-79
2021/05/09 09:21:27;;;;;;;;;;;;;;;22.90;24.48;101172.16;1785053;80;20238;-79
2021/05/09 09:23:56;;;;;;;;;;;;;;;22.78;24.05;101173.89;1775484;80;20233;-80
2021/05/09 09:26:45;;;;;;;;;;;;;;;22.71;24.57;101176.68;1730304;82;20303;-79
2021/05/09 09:29:29;;;;;;;;;;;;;;;22.66;24.65;101177.84;1752667;82;20263;-78
2021/05/09 09:32:02;;;;;;;;;;;;;;;22.61;24.64;101187.76;1752547;82;20276;-77
2021/05/09 09:34:38;;;;;;;;;;;;;;;22.53;24.58;101184.78;1753729;82;20257;-79
2021/05/09 09:37:06;;;;;;;;;;;;;;;22.48;24.65;101181.34;1765380;80;20374;-79
2021/05/09 09:39:59;;;;;;;;;;;;;;;22.41;24.53;101178.33;1784471;78;20286;-78
2021/05/09 09:42:39;;;;;;;;;;;;;;;22.34;24.48;101184.34;1785214;80;20355;-77
2021/05/09 09:45:18;;;;;;;;;;;;;;;22.25;24.31;101181.86;1760810;80;20459;-77
2021/05/09 09:48:01;;;;;;;;;;;;;;;22.16;24.61;101180.97;1768745;80;20258;-78
2021/05/09 09:50:51;;;;;;;;;;;;;;;22.08;24.54;101179.84;1781531;80;20270;-78
2021/05/09 09:53:30;;;;;;;;;;;;;;;21.98;24.97;101185.73;1779502;80;20211;-78
2021/05/09 09:56:05;;;;;;;;;;;;;;;21.90;24.78;101184.09;1779188;80;20258;-77
2021/05/09 09:58:56;;;;;;;;;;;;;;;21.81;24.91;101192.73;1784863;80;20231;-77
2021/05/09 10:01:29;;;;;;;;;;;;;;;21.71;25.16;101191.79;1766195;80;20271;-77
2021/05/09 10:04:03;;;;;;;;;;;;;;;21.66;25.36;101193.80;1764552;80;20279;-79
2021/05/09 10:06:31;;;;;;;;;;;;;;;21.64;25.46;101189.09;1767247;80;20262;-77
2021/05/09 10:08:58;;;;;;;;;;;;;;;21.63;25.77;101196.97;1778773;80;20289;-78
2021/05/09 10:11:28;;;;;;;;;;;;;;;21.66;25.78;101201.97;1781029;80;20285;-80
2021/05/09 10:13:56;;;;;;;;;;;;;;;21.67;24.79;101202.31;1776792;80;20366;-78
2021/05/09 10:16:30;;;;;;;;;;;;;;;21.64;25.13;101197.27;1776660;80;20290;-79
2021/05/09 10:19:01;;;;;;;;;;;;;;;21.63;24.91;101196.97;1783424;80;20274;-79
2021/05/09 10:21:33;;;;;;;;;;;;;;;21.63;24.99;101198.86;1781552;80;20262;-79
2021/05/09 10:24:25;;;;;;;;;;;;;;;21.62;24.99;101192.58;1776336;80;20285;-79
2021/05/09 10:26:58;;;;;;;;;;;;;;;21.61;24.99;101194.96;1775581;80;20274;-79
2021/05/09 10:29:41;;;;;;;;;;;;;;;21.55;24.92;101206.73;1779596;80;20267;-80
2021/05/09 10:32:22;;;;;;;;;;;;;;;21.49;24.90;101206.23;1771125;79;20282;-80
2021/05/09 10:34:58;;;;;;;;;;;;;;;21.42;24.60;101210.83;1789081;80;20273;-79
2021/05/09 10:37:42;;;;;;;;;;;;;;;21.36;24.88;101213.05;1793880;80;20210;-78
2021/05/09 10:40:34;;;;;;;;;;;;;;;21.31;25.00;101214.17;1780317;80;20210;-81
2021/05/09 10:43:05;;;;;;;;;;;;;;;21.30;25.33;101226.94;1790075;80;20351;-78
2021/05/09 10:45:41;;;;;;;;;;;;;;;21.29;24.94;101221.18;1790379;80;20210;-79
2021/05/09 10:48:22;;;;;;;;;;;;;;;21.26;24.93;101218.37;1791803;80;20253;-78
2021/05/09 10:50:52;;;;;;;;;;;;;;;21.27;25.05;101217.31;1763417;81;20220;-80
2021/05/09 10:53:39;;;;;;;;;;;;;;;21.28;24.66;101212.17;1732409;80;20482;-79
2021/05/09 10:56:20;;;;;;;;;;;;;;;21.28;24.41;101225.80;1777759;80;20538;-79
2021/05/09 10:58:51;;;;;;;;;;;;;;;21.24;24.53;101223.17;1775710;80;20338;-79
2021/05/09 11:01:23;;;;;;;;;;;;;;;21.24;24.77;101225.06;1785319;80;20249;-79
2021/05/09 11:04:09;;;;;;;;;;;;;;;21.25;25.24;101230.29;1793841;80;20249;-79
2021/05/09 11:06:38;;;;;;;;;;;;;;;21.25;25.33;101224.00;1793589;79;20277;-80
2021/05/09 11:09:13;;;;;;;;;;;;;;;21.25;25.19;101220.75;1792673;80;20277;-79
2021/05/09 11:11:44;;;;;;;;;;;;;;;21.25;24.71;101222.12;1792316;80;20273;-79
2021/05/09 11:14:15;;;;;;;;;;;;;;;21.23;25.13;101213.86;1792696;80;20561;-78
2021/05/09 11:17:06;;;;;;;;;;;;;;;21.21;24.86;101217.30;1760646;80;20273;-79
2021/05/09 11:19:41;;;;;;;;;;;;;;;21.18;24.65;101206.31;1793255;80;20266;-77
2021/05/09 11:22:09;;;;;;;;;;;;;;;21.14;24.87;101211.86;1794312;80;20273;-79
2021/05/09 11:24:37;;;;;;;;;;;;;;;21.07;24.66;101208.28;1787138;80;20265;-79
2021/05/09 11:27:08;;;;;;;;;;;;;;;21.00;24.87;101214.27;1791874;80;20456;-79
2021/05/09 11:29:39;;;;;;;;;;;;;;;20.98;25.24;101219.94;1793095;80;20566;-79
2021/05/09 11:32:14;;;;;;;;;;;;;;;20.97;25.38;101218.23;1793505;80;20257;-79
2021/05/09 11:34:52;;;;;;;;;;;;;;;20.97;25.43;101211.95;1793305;80;20285;-79
2021/05/09 11:37:23;;;;;;;;;;;;;;;20.94;25.35;101209.14;1783520;79;20284;-79
2021/05/09 11:39:49;;;;;;;;;;;;;;;20.88;25.29;101214.03;1730144;81;20232;-79
2021/05/09 11:42:18;;;;;;;;;;;;;;;20.84;25.52;101214.13;1761704;81;20296;-79
2021/05/09 11:44:56;;;;;;;;;;;;;;;20.85;25.83;101210.88;1761189;81;20287;-78
2021/05/09 11:47:26;;;;;;;;;;;;;;;20.84;25.82;101205.12;1761438;80;20351;-78
2021/05/09 11:50:04;;;;;;;;;;;;;;;20.84;25.75;101216.02;1788302;80;20590;-78
2021/05/09 11:52:36;;;;;;;;;;;;;;;20.80;25.56;101210.67;1792381;80;20272;-79
2021/05/09 11:55:04;;;;;;;;;;;;;;;20.76;25.69;101207.55;1793678;80;20257;-79
2021/05/09 11:57:32;;;;;;;;;;;;;;;20.73;25.64;101207.42;1793604;80;20301;-79
2021/05/09 12:00:03;;;;;;;;;;;;;;;20.70;25.59;101216.00;1793446;80;20600;-81
2021/05/09 12:02:32;;;;;;;;;;;;;;;20.69;25.90;101209.41;1776570;80;20292;-78
2021/05/09 12:05:09;;;;;;;;;;;;;;;20.70;25.88;101211.08;1763760;80;20317;-77
2021/05/09 12:07:52;;;;;;;;;;;;;;;20.71;25.86;101209.53;1786779;80;20297;-77
2021/05/09 12:10:30;;;;;;;;;;;;;;;20.74;25.80;101211.81;1793208;80;20261;-77
2021/05/09 12:13:06;;;;;;;;;;;;;;;20.76;26.12;101211.11;1796094;80;20294;-77
2021/05/09 12:15:36;;;;;;;;;;;;;;;20.81;25.84;101213.73;1796249;80;20199;-78
2021/05/09 12:18:04;;;;;;;;;;;;;;;20.86;25.94;101214.78;1796633;80;20243;-77
2021/05/09 12:20:37;;;;;;;;;;;;;;;20.88;24.73;101211.84;1796849;80;20218;-78
2021/05/09 12:23:09;;;;;;;;;;;;;;;20.87;24.80;101200.64;1764141;80;20194;-78
2021/05/09 12:25:47;;;;;;;;;;;;;;;20.88;24.77;101196.86;1795910;80;20261;-79
2021/05/09 12:28:29;;;;;;;;;;;;;;;20.86;24.55;101196.25;1793824;80;20293;-79
2021/05/09 12:31:08;;;;;;;;;;;;;;;20.88;24.46;101205.03;1729127;81;20247;-79
2021/05/09 12:33:36;;;;;;;;;;;;;;;20.89;24.63;101209.42;1761553;81;20271;-79
2021/05/09 12:36:10;;;;;;;;;;;;;;;20.92;24.81;101202.21;1762480;81;20256;-80
2021/05/09 12:38:38;;;;;;;;;;;;;;;20.91;24.73;101202.73;1762161;81;20260;-79
2021/05/09 12:41:07;;;;;;;;;;;;;;;20.90;24.69;101202.95;1775309;80;20274;-79
2021/05/09 12:43:51;;;;;;;;;;;;;;;20.89;24.80;101202.13;1778620;80;20282;-78
2021/05/09 12:46:42;;;;;;;;;;;;;;;20.89;24.84;101202.62;1778544;80;20218;-78
2021/05/09 12:49:33;;;;;;;;;;;;;;;20.88;24.73;101199.06;1777864;80;20362;-77
2021/05/09 12:52:02;;;;;;;;;;;;;;;20.88;24.67;101199.59;1776627;80;20255;-78